Time;durP1;ratioP1;P1;durP2;ratioP2;P2;SDS_P1;SDS_P2;PMS_P1;PMS_P2;Temp;Humidity;BMP_temperature;BMP_pressure;BME280_temperature;BME280_humidity;BME280_pressure;Samples;Min_cycle;Max_cycle;Signal;HPM_P1;HPM_P2
2023/10/19 00:00:45;;;;;;;25.55;17.35;;;8.60;99.90;;;;;;5045641;28;20060;-60
2023/10/19 00:03:12;;;;;;;27.30;18.40;;;8.50;99.90;;;;;;5040275;28;20124;-59
2023/10/19 00:05:38;;;;;;;26.65;17.75;;;8.50;99.90;;;;;;5031523;28;20037;-59
2023/10/19 00:08:16;;;;;;;23.10;16.55;;;8.50;99.90;;;;;;5040432;28;20032;-59
2023/10/19 00:10:45;;;;;;;24.73;17.92;;;8.50;99.90;;;;;;5036016;28;20045;-60
2023/10/19 00:13:11;;;;;;;26.13;17.95;;;8.50;99.90;;;;;;5042676;28;21109;-59
2023/10/19 00:15:54;;;;;;;24.75;18.17;;;8.50;99.90;;;;;;5041690;28;20044;-60
2023/10/19 00:18:21;;;;;;;27.75;19.33;;;8.50;99.90;;;;;;5040829;28;20608;-57
2023/10/19 00:20:52;;;;;;;29.95;20.00;;;8.50;99.90;;;;;;5042918;28;20041;-58
2023/10/19 00:23:29;;;;;;;27.83;19.17;;;8.50;99.90;;;;;;5042684;28;20095;-59
2023/10/19 00:25:56;;;;;;;26.98;20.55;;;8.50;99.90;;;;;;5044663;28;20084;-58
2023/10/19 00:28:22;;;;;;;24.88;18.60;;;8.50;99.90;;;;;;5045051;28;20068;-58
2023/10/19 00:30:49;;;;;;;31.52;21.52;;;8.50;99.90;;;;;;5049950;28;20492;-57
2023/10/19 00:33:20;;;;;;;29.08;20.90;;;8.50;99.90;;;;;;5037750;28;20047;-59
2023/10/19 00:36:00;;;;;;;28.70;20.80;;;8.50;99.90;;;;;;5049904;28;20087;-58
2023/10/19 00:40:53;;;;;;;30.40;21.85;;;8.40;99.90;;;;;;5042847;28;20053;-59
2023/10/19 00:43:43;;;;;;;32.03;21.52;;;8.40;99.90;;;;;;5040942;28;20072;-60
2023/10/19 00:49:01;;;;;;;31.45;22.30;;;8.40;99.90;;;;;;5009937;28;20056;-60
2023/10/19 00:53:59;;;;;;;28.73;21.17;;;8.40;99.90;;;;;;5043604;28;20045;-58
2023/10/19 00:56:31;;;;;;;38.05;23.77;;;8.40;99.90;;;;;;5023426;28;20067;-59
2023/10/19 00:59:00;;;;;;;30.70;21.95;;;8.40;99.90;;;;;;5022532;28;20635;-57
2023/10/19 01:01:29;;;;;;;33.20;22.15;;;8.40;99.90;;;;;;5057056;28;20519;-60
2023/10/19 01:03:58;;;;;;;33.20;23.83;;;8.50;99.90;;;;;;5041743;28;20486;-60
2023/10/19 01:06:25;;;;;;;30.85;22.50;;;8.50;99.90;;;;;;5044427;28;20325;-59
2023/10/19 01:08:52;;;;;;;35.28;24.65;;;8.40;99.90;;;;;;5041463;28;20074;-58
2023/10/19 01:11:20;;;;;;;34.72;23.05;;;8.40;99.90;;;;;;5040735;28;20112;-60
2023/10/19 01:13:47;;;;;;;35.70;23.85;;;8.40;99.90;;;;;;5039606;28;20087;-60
2023/10/19 01:16:23;;;;;;;30.60;22.25;;;8.50;99.90;;;;;;5030626;28;20056;-58
2023/10/19 01:18:53;;;;;;;34.65;24.55;;;8.50;99.90;;;;;;5021535;28;21655;-60
2023/10/19 01:21:37;;;;;;;34.88;23.67;;;8.40;99.90;;;;;;5042329;28;20241;-56
2023/10/19 01:24:07;;;;;;;;;;;8.50;99.90;;;;;;5035742;28;20500;-60
2023/10/19 01:26:37;;;;;;;35.55;24.60;;;8.50;99.90;;;;;;5022250;28;20182;-60
2023/10/19 01:29:13;;;;;;;35.30;24.77;;;8.40;99.90;;;;;;5039395;28;20052;-57
2023/10/19 01:31:50;;;;;;;35.50;24.30;;;8.40;99.90;;;;;;5045204;28;20041;-57
2023/10/19 01:34:19;;;;;;;32.75;23.88;;;8.50;99.90;;;;;;5027612;28;20123;-59
2023/10/19 01:36:50;;;;;;;36.53;25.77;;;8.50;99.90;;;;;;5048685;28;20056;-60
2023/10/19 01:39:18;;;;;;;32.33;23.42;;;8.50;99.90;;;;;;5042750;28;20573;-60
2023/10/19 01:41:44;;;;;;;39.63;27.33;;;8.50;99.90;;;;;;5029433;28;20519;-60
2023/10/19 01:44:13;;;;;;;38.42;25.67;;;8.50;99.90;;;;;;5045119;28;20124;-60
2023/10/19 01:46:39;;;;;;;35.70;24.38;;;8.50;99.90;;;;;;5042083;28;20045;-59
2023/10/19 01:49:08;;;;;;;38.85;25.13;;;8.50;99.90;;;;;;5047503;28;20033;-60
2023/10/19 01:51:43;;;;;;;38.80;26.88;;;8.50;99.90;;;;;;5047070;28;20033;-59
2023/10/19 01:54:09;;;;;;;38.00;26.60;;;8.50;99.90;;;;;;5026267;28;20115;-60
2023/10/19 01:56:35;;;;;;;34.92;25.40;;;8.60;99.90;;;;;;5042348;28;20040;-58
2023/10/19 01:59:06;;;;;;;34.13;24.20;;;8.50;99.90;;;;;;5043360;28;20041;-59
2023/10/19 02:01:32;;;;;;;33.55;24.58;;;8.60;99.90;;;;;;5039631;28;20536;-59
2023/10/19 02:04:05;;;;;;;36.47;26.05;;;8.50;99.90;;;;;;5032310;28;20455;-60
2023/10/19 02:06:40;;;;;;;35.28;25.30;;;8.60;99.90;;;;;;5035636;28;20041;-58
2023/10/19 02:11:46;;;;;;;33.78;24.95;;;8.60;99.90;;;;;;5042392;28;20060;-58
2023/10/19 02:14:16;;;;;;;32.45;24.33;;;8.60;99.90;;;;;;5027216;28;20029;-60
2023/10/19 02:16:43;;;;;;;34.08;25.67;;;8.60;99.90;;;;;;5022991;28;20585;-59
2023/10/19 02:19:09;;;;;;;31.80;23.55;;;8.60;99.90;;;;;;5041636;28;20512;-60
2023/10/19 02:21:42;;;;;;;36.13;25.33;;;8.70;99.90;;;;;;5039102;28;20053;-60
2023/10/19 02:24:09;;;;;;;37.67;24.30;;;8.70;99.90;;;;;;5040547;28;20052;-60
2023/10/19 02:26:37;;;;;;;30.70;22.63;;;8.60;99.90;;;;;;5038245;28;20041;-57
2023/10/19 02:29:10;;;;;;;27.40;20.75;;;8.70;99.90;;;;;;5043404;28;20120;-59
2023/10/19 02:31:43;;;;;;;31.10;21.42;;;8.70;99.90;;;;;;5023636;28;20041;-59
2023/10/19 02:34:11;;;;;;;32.20;21.33;;;8.70;99.90;;;;;;5043535;28;20033;-58
2023/10/19 02:36:38;;;;;;;25.83;19.83;;;8.70;99.90;;;;;;5042118;28;20269;-59
2023/10/19 02:39:09;;;;;;;27.83;21.38;;;8.70;99.90;;;;;;5026302;28;20278;-60
2023/10/19 02:41:35;;;;;;;24.13;18.48;;;8.70;99.90;;;;;;5035847;28;20791;-58
2023/10/19 02:46:34;;;;;;;25.17;18.55;;;8.70;99.90;;;;;;5045000;28;20037;-61
2023/10/19 02:49:11;;;;;;;23.25;17.20;;;8.70;99.90;;;;;;5043753;28;20484;-60
2023/10/19 02:51:38;;;;;;;28.48;17.65;;;8.70;99.90;;;;;;5043843;28;20037;-60
2023/10/19 02:54:06;;;;;;;22.13;15.93;;;8.70;99.90;;;;;;5041326;28;20455;-61
2023/10/19 02:56:31;;;;;;;21.23;16.00;;;8.80;99.90;;;;;;5040572;28;20049;-60
2023/10/19 02:59:07;;;;;;;21.60;15.85;;;8.70;99.90;;;;;;5044748;28;20043;-57
2023/10/19 03:01:36;;;;;;;21.83;14.90;;;8.70;99.90;;;;;;5038189;28;20119;-59
2023/10/19 03:04:04;;;;;;;18.45;14.40;;;8.80;99.90;;;;;;5025366;28;20029;-59
2023/10/19 03:06:33;;;;;;;20.92;14.30;;;8.70;99.90;;;;;;5020631;28;20041;-59
2023/10/19 03:09:13;;;;;;;23.80;15.35;;;8.80;99.90;;;;;;5038679;28;20044;-58
2023/10/19 03:11:40;;;;;;;20.33;15.43;;;8.70;99.90;;;;;;5024534;28;20041;-58
2023/10/19 03:14:08;;;;;;;17.98;14.13;;;8.80;99.90;;;;;;5045818;28;20566;-59
2023/10/19 03:16:34;;;;;;;18.52;13.18;;;8.80;99.90;;;;;;5027248;28;20041;-57
2023/10/19 03:19:00;;;;;;;20.88;15.13;;;8.80;99.90;;;;;;5042384;28;20055;-60
2023/10/19 03:21:32;;;;;;;19.95;14.35;;;8.80;99.90;;;;;;5044856;28;20045;-58
2023/10/19 03:24:01;;;;;;;17.38;13.75;;;8.80;99.90;;;;;;5046408;28;20055;-56
2023/10/19 03:26:30;;;;;;;20.52;14.77;;;8.80;99.90;;;;;;5044408;28;20555;-59
2023/10/19 03:29:14;;;;;;;31.25;20.70;;;8.80;99.90;;;;;;5043067;28;20071;-61
2023/10/19 03:31:47;;;;;;;16.15;11.68;;;8.80;99.90;;;;;;5046063;28;20037;-60
2023/10/19 03:34:13;;;;;;;17.17;11.85;;;8.80;99.90;;;;;;5045215;28;20040;-59
2023/10/19 03:36:40;;;;;;;14.93;11.40;;;8.80;99.90;;;;;;5041957;28;20082;-61
2023/10/19 03:39:14;;;;;;;14.38;11.13;;;8.90;99.90;;;;;;5042637;28;20052;-57
2023/10/19 03:41:44;;;;;;;16.10;12.05;;;8.90;99.90;;;;;;5036785;28;20036;-57
2023/10/19 03:46:59;;;;;;;16.52;12.20;;;8.90;99.90;;;;;;5044029;28;20682;-58
2023/10/19 03:49:36;;;;;;;17.48;12.93;;;8.90;99.90;;;;;;5045822;28;20500;-59
2023/10/19 03:54:40;;;;;;;16.25;12.52;;;8.90;99.90;;;;;;5043687;28;20045;-60
2023/10/19 03:57:19;;;;;;;16.42;11.30;;;8.90;99.90;;;;;;5042686;28;20499;-58
2023/10/19 03:59:49;;;;;;;14.02;10.82;;;8.90;99.90;;;;;;5031943;28;20048;-57
2023/10/19 04:02:20;;;;;;;12.55;10.40;;;8.90;99.90;;;;;;5035625;28;20045;-58
2023/10/19 04:04:51;;;;;;;12.43;10.38;;;8.90;99.90;;;;;;5044518;28;20076;-60
2023/10/19 04:07:21;;;;;;;12.65;9.38;;;9.00;99.90;;;;;;5040449;28;20132;-58
2023/10/19 04:09:59;;;;;;;11.70;9.77;;;9.00;99.90;;;;;;5028285;28;20048;-60
2023/10/19 04:12:31;;;;;;;14.77;11.02;;;9.00;99.90;;;;;;5029719;28;20041;-58
2023/10/19 04:14:57;;;;;;;13.48;10.02;;;9.00;99.90;;;;;;5041848;28;20033;-59
2023/10/19 04:17:24;;;;;;;13.45;10.50;;;9.00;99.90;;;;;;5045543;28;20287;-60
2023/10/19 04:19:51;;;;;;;15.10;11.50;;;9.00;99.90;;;;;;5043147;28;20496;-59
2023/10/19 04:22:24;;;;;;;18.98;12.80;;;9.10;99.90;;;;;;5044897;28;20072;-61
2023/10/19 04:24:54;;;;;;;13.27;10.48;;;9.10;99.90;;;;;;5043248;28;20051;-60
2023/10/19 04:27:23;;;;;;;13.23;10.10;;;9.00;99.90;;;;;;5043641;28;20405;-60
2023/10/19 04:29:49;;;;;;;12.82;10.75;;;9.10;99.90;;;;;;5027656;28;20087;-59
2023/10/19 04:32:24;;;;;;;13.23;10.60;;;9.10;99.90;;;;;;5042943;28;20037;-60
2023/10/19 04:34:51;;;;;;;14.65;10.85;;;9.10;99.90;;;;;;5041678;28;20123;-60
2023/10/19 04:37:18;;;;;;;16.67;11.68;;;9.10;99.90;;;;;;5038963;28;20099;-60
2023/10/19 04:39:45;;;;;;;13.13;10.57;;;9.10;99.90;;;;;;5042800;28;20051;-58
2023/10/19 04:42:10;;;;;;;18.45;12.75;;;9.10;99.90;;;;;;5047216;28;20048;-59
2023/10/19 04:44:36;;;;;;;14.07;11.60;;;9.10;99.90;;;;;;5035518;28;20048;-60
2023/10/19 04:47:02;;;;;;;12.02;9.95;;;9.10;99.90;;;;;;5018542;28;20393;-60
2023/10/19 04:49:28;;;;;;;15.57;11.75;;;9.10;99.90;;;;;;5044169;28;20496;-60
2023/10/19 04:51:54;;;;;;;14.48;11.40;;;9.20;99.90;;;;;;5051454;28;20045;-59
2023/10/19 04:54:19;;;;;;;15.40;11.05;;;9.20;99.90;;;;;;5039954;28;20171;-60
2023/10/19 04:56:45;;;;;;;15.15;10.85;;;9.20;99.90;;;;;;5043188;28;20522;-60
2023/10/19 04:59:11;;;;;;;11.63;9.77;;;9.10;99.90;;;;;;5045543;28;20459;-60
2023/10/19 05:01:37;;;;;;;14.23;10.23;;;9.10;99.90;;;;;;5045350;28;20037;-59
2023/10/19 05:04:03;;;;;;;11.98;9.60;;;9.20;99.90;;;;;;5042750;28;20167;-61
2023/10/19 05:06:29;;;;;;;15.52;11.52;;;9.30;99.90;;;;;;5048033;28;20041;-60
2023/10/19 05:08:54;;;;;;;15.15;11.18;;;9.20;99.90;;;;;;5046006;28;20567;-59
2023/10/19 05:11:20;;;;;;;15.63;11.57;;;9.20;99.90;;;;;;5040741;28;20124;-60
2023/10/19 05:13:46;;;;;;;12.75;9.73;;;9.20;99.90;;;;;;5035962;28;22309;-59
2023/10/19 05:16:12;;;;;;;11.70;9.35;;;9.20;99.90;;;;;;5044297;28;20041;-61
2023/10/19 05:18:38;;;;;;;13.50;10.55;;;9.20;99.90;;;;;;5025150;28;20041;-60
2023/10/19 05:21:05;;;;;;;13.57;10.50;;;9.20;99.90;;;;;;5043300;28;20480;-58
2023/10/19 05:23:30;;;;;;;11.00;9.27;;;9.20;99.90;;;;;;5045506;28;20049;-60
2023/10/19 05:26:02;;;;;;;12.48;9.43;;;9.20;99.90;;;;;;5027205;28;20415;-60
2023/10/19 05:28:31;;;;;;;14.20;9.98;;;9.20;99.90;;;;;;5041691;28;20116;-61
2023/10/19 05:30:57;;;;;;;12.10;9.65;;;9.20;99.90;;;;;;5034657;28;20067;-60
2023/10/19 05:33:23;;;;;;;10.77;9.00;;;9.20;99.90;;;;;;5033231;28;20041;-61
2023/10/19 05:35:50;;;;;;;10.30;8.35;;;9.20;99.90;;;;;;5043454;28;20055;-60
2023/10/19 05:38:16;;;;;;;11.68;9.02;;;9.20;99.90;;;;;;5042928;28;20056;-60
2023/10/19 05:40:43;;;;;;;11.70;8.23;;;9.20;99.90;;;;;;5044100;28;20037;-58
2023/10/19 05:43:09;;;;;;;12.77;9.25;;;9.20;99.90;;;;;;5045191;28;20052;-60
2023/10/19 05:45:36;;;;;;;11.05;8.77;;;9.20;99.90;;;;;;5046013;28;20500;-60
2023/10/19 05:48:06;;;;;;;11.43;8.93;;;9.20;99.90;;;;;;5040695;28;20535;-60
2023/10/19 05:50:36;;;;;;;9.15;7.38;;;9.20;99.90;;;;;;5040455;28;20069;-60
2023/10/19 05:53:03;;;;;;;10.75;8.45;;;9.20;99.90;;;;;;5023253;28;20566;-60
2023/10/19 05:55:29;;;;;;;11.70;8.63;;;9.20;99.90;;;;;;5043292;28;20187;-60
2023/10/19 05:57:55;;;;;;;10.98;8.70;;;9.20;99.90;;;;;;5039701;28;20777;-65
2023/10/19 06:00:25;;;;;;;10.20;7.80;;;9.20;99.90;;;;;;5041398;28;20668;-61
2023/10/19 06:02:52;;;;;;;11.52;8.35;;;9.20;99.90;;;;;;5040452;28;20052;-61
2023/10/19 06:05:18;;;;;;;10.63;8.20;;;9.20;99.90;;;;;;5044184;28;20044;-59
2023/10/19 06:07:45;;;;;;;11.52;8.95;;;9.30;99.90;;;;;;5042756;28;20051;-59
2023/10/19 06:10:22;;;;;;;11.30;8.52;;;9.30;99.90;;;;;;5024640;28;20041;-60
2023/10/19 06:12:52;;;;;;;11.68;9.05;;;9.30;99.90;;;;;;5037883;28;20040;-60
2023/10/19 06:15:28;;;;;;;9.65;8.13;;;9.30;99.90;;;;;;5044607;28;20164;-59
2023/10/19 06:17:54;;;;;;;9.70;8.05;;;9.30;99.90;;;;;;5041749;28;20040;-59
2023/10/19 06:20:23;;;;;;;13.85;10.73;;;9.30;99.90;;;;;;5031718;28;20037;-59
2023/10/19 06:22:51;;;;;;;12.18;9.82;;;9.30;99.90;;;;;;5044092;28;20040;-60
2023/10/19 06:25:18;;;;;;;10.20;8.52;;;9.30;99.90;;;;;;5027238;28;20200;-60
2023/10/19 06:27:44;;;;;;;15.63;12.07;;;9.30;99.90;;;;;;5041483;28;20594;-61
2023/10/19 06:30:11;;;;;;;14.73;11.45;;;9.40;99.90;;;;;;5039604;28;20507;-61
2023/10/19 06:32:36;;;;;;;12.52;9.45;;;9.30;99.90;;;;;;5043972;28;20458;-60
2023/10/19 06:35:03;;;;;;;14.40;11.35;;;9.30;99.90;;;;;;5031433;28;20037;-60
2023/10/19 06:37:29;;;;;;;13.32;11.10;;;9.40;99.90;;;;;;5042287;28;20037;-60
2023/10/19 06:39:54;;;;;;;11.20;8.80;;;9.40;99.90;;;;;;5041002;28;20037;-61
2023/10/19 06:42:20;;;;;;;14.35;10.82;;;9.40;99.90;;;;;;5042351;28;20041;-60
2023/10/19 06:44:46;;;;;;;12.18;9.80;;;9.40;99.90;;;;;;5050535;28;20131;-59
2023/10/19 06:47:13;;;;;;;14.63;11.02;;;9.40;99.90;;;;;;5027583;28;20522;-61
2023/10/19 06:49:39;;;;;;;10.48;9.07;;;9.40;99.90;;;;;;5040700;28;20069;-60
2023/10/19 06:52:05;;;;;;;9.82;8.48;;;9.40;99.90;;;;;;5038493;28;20055;-61
2023/10/19 06:54:32;;;;;;;11.80;9.30;;;9.40;99.90;;;;;;5022489;28;20044;-60
2023/10/19 06:56:58;;;;;;;10.18;8.68;;;9.40;99.90;;;;;;5041382;28;20044;-60
2023/10/19 06:59:24;;;;;;;11.25;8.82;;;9.40;99.90;;;;;;5024690;28;20036;-60
2023/10/19 07:01:50;;;;;;;11.00;8.75;;;9.40;99.90;;;;;;5042078;28;20043;-60
2023/10/19 07:04:15;;;;;;;9.73;8.32;;;9.40;99.90;;;;;;5042332;28;20116;-60
2023/10/19 07:06:41;;;;;;;13.02;8.98;;;9.40;99.90;;;;;;5045357;28;20159;-60
2023/10/19 07:09:10;;;;;;;11.57;9.13;;;9.50;99.90;;;;;;5036288;28;20460;-61
2023/10/19 07:11:36;;;;;;;9.75;7.75;;;9.40;99.90;;;;;;5038607;28;20076;-60
2023/10/19 07:14:02;;;;;;;13.10;9.40;;;9.50;99.90;;;;;;5042565;28;20033;-60
2023/10/19 07:16:28;;;;;;;8.48;7.57;;;9.40;99.90;;;;;;5042142;28;20077;-59
2023/10/19 07:18:54;;;;;;;10.80;8.88;;;9.50;99.90;;;;;;5040816;28;20060;-60
2023/10/19 07:21:20;;;;;;;12.27;10.55;;;9.50;99.90;;;;;;5038302;28;20049;-59
2023/10/19 07:23:49;;;;;;;13.40;11.55;;;9.50;99.90;;;;;;5039584;28;20041;-60
2023/10/19 07:26:14;;;;;;;13.85;10.18;;;9.40;99.90;;;;;;5039738;28;20518;-60
2023/10/19 07:28:42;;;;;;;11.10;9.18;;;9.50;99.90;;;;;;5021885;28;20041;-61
2023/10/19 07:31:12;;;;;;;12.82;10.40;;;9.50;99.90;;;;;;5042196;28;20111;-59
2023/10/19 07:33:42;;;;;;;13.40;10.77;;;9.50;99.90;;;;;;5044461;28;20056;-59
2023/10/19 07:36:14;;;;;;;12.35;9.95;;;9.50;99.90;;;;;;5042798;28;20121;-60
2023/10/19 07:38:42;;;;;;;12.75;9.45;;;9.50;99.90;;;;;;5041642;28;20041;-61
2023/10/19 07:41:09;;;;;;;11.63;9.68;;;9.50;99.90;;;;;;5025324;28;20041;-58
2023/10/19 07:43:35;;;;;;;11.23;9.82;;;9.50;99.90;;;;;;5043137;28;20041;-60
2023/10/19 07:46:01;;;;;;;13.68;11.60;;;9.50;99.90;;;;;;5046406;28;20045;-59
2023/10/19 07:48:27;;;;;;;12.00;10.13;;;9.50;99.90;;;;;;5043151;28;20400;-61
2023/10/19 07:50:53;;;;;;;13.02;10.93;;;9.50;99.90;;;;;;5044816;28;20037;-58
2023/10/19 07:53:19;;;;;;;13.05;10.45;;;9.50;99.90;;;;;;5041906;28;20488;-59
2023/10/19 07:55:45;;;;;;;12.13;9.75;;;9.60;99.90;;;;;;5022824;28;20045;-60
2023/10/19 07:58:11;;;;;;;12.25;10.32;;;9.60;99.90;;;;;;5041689;28;20048;-61
2023/10/19 08:00:38;;;;;;;12.18;10.18;;;9.60;99.90;;;;;;5031292;28;20098;-60
2023/10/19 08:03:05;;;;;;;24.77;22.17;;;9.60;99.90;;;;;;5042445;28;20048;-60
2023/10/19 08:05:33;;;;;;;14.02;12.57;;;9.60;99.90;;;;;;5048959;28;20057;-61
2023/10/19 08:08:00;;;;;;;16.20;12.77;;;9.60;99.90;;;;;;5047034;28;20567;-61
2023/10/19 08:10:26;;;;;;;12.18;10.55;;;9.60;99.90;;;;;;5044631;28;20400;-60
2023/10/19 08:12:52;;;;;;;12.70;10.35;;;9.60;99.90;;;;;;5048589;28;20157;-60
2023/10/19 08:15:20;;;;;;;12.85;11.18;;;9.60;99.90;;;;;;5045744;28;20689;-61
2023/10/19 08:17:47;;;;;;;10.93;9.73;;;9.70;99.90;;;;;;5047633;28;20407;-60
2023/10/19 08:20:23;;;;;;;13.57;10.63;;;9.70;99.90;;;;;;5046688;28;20511;-61
2023/10/19 08:22:53;;;;;;;14.27;10.25;;;9.70;99.90;;;;;;5046809;28;20127;-61
2023/10/19 08:25:20;;;;;;;13.48;11.50;;;9.70;99.90;;;;;;5043214;28;20492;-61
2023/10/19 08:27:51;;;;;;;15.60;11.73;;;9.70;99.90;;;;;;5041680;28;20036;-60
2023/10/19 08:30:18;;;;;;;13.20;10.48;;;9.80;99.90;;;;;;5041915;28;20040;-61
2023/10/19 08:32:51;;;;;;;13.98;10.05;;;9.80;99.90;;;;;;5030890;28;20237;-60
2023/10/19 08:35:24;;;;;;;15.13;11.15;;;9.80;99.90;;;;;;5042628;28;20352;-60
2023/10/19 08:37:50;;;;;;;11.50;9.48;;;9.80;99.90;;;;;;5045006;28;20037;-61
2023/10/19 08:40:17;;;;;;;11.75;9.63;;;9.80;99.90;;;;;;5048129;28;20079;-60
2023/10/19 08:42:45;;;;;;;12.35;9.32;;;9.80;99.90;;;;;;5045010;28;20560;-60
2023/10/19 08:45:16;;;;;;;12.32;9.85;;;9.80;99.90;;;;;;5042684;28;20052;-61
2023/10/19 08:48:02;;;;;;;12.88;11.15;;;9.90;99.90;;;;;;5027820;28;20500;-60
2023/10/19 08:50:30;;;;;;;15.48;11.52;;;9.90;99.90;;;;;;5061193;28;20051;-60
2023/10/19 08:52:58;;;;;;;15.63;12.10;;;9.90;99.90;;;;;;5043410;28;20070;-60
2023/10/19 08:55:25;;;;;;;15.35;11.40;;;9.90;99.90;;;;;;5028288;28;20068;-61
2023/10/19 08:57:51;;;;;;;15.05;12.10;;;9.90;99.90;;;;;;5023932;28;20152;-61
2023/10/19 09:00:18;;;;;;;18.17;13.15;;;9.90;99.90;;;;;;5041574;28;20407;-59
2023/10/19 09:02:48;;;;;;;11.50;10.13;;;9.90;99.90;;;;;;5042516;28;20406;-60
2023/10/19 09:05:22;;;;;;;15.43;10.52;;;10.00;99.90;;;;;;5044196;28;20121;-60
2023/10/19 09:07:54;;;;;;;15.55;10.95;;;10.00;99.90;;;;;;5045062;28;20040;-60
2023/10/19 09:10:28;;;;;;;11.43;9.13;;;10.00;99.90;;;;;;5028473;28;20048;-59
2023/10/19 09:13:02;;;;;;;16.67;11.68;;;10.10;99.90;;;;;;5046030;28;20492;-61
2023/10/19 09:15:32;;;;;;;15.98;10.18;;;10.10;99.90;;;;;;5039443;28;20040;-61
2023/10/19 09:17:59;;;;;;;15.40;11.32;;;10.10;99.90;;;;;;5039374;28;20037;-61
2023/10/19 09:20:28;;;;;;;15.05;11.93;;;10.10;99.90;;;;;;5040634;28;20040;-61
2023/10/19 09:22:54;;;;;;;20.20;14.15;;;10.10;99.90;;;;;;5023156;28;20419;-61
2023/10/19 09:25:21;;;;;;;16.50;13.02;;;10.10;99.90;;;;;;5039728;28;20099;-61
2023/10/19 09:27:47;;;;;;;15.98;11.65;;;10.10;99.90;;;;;;5042655;28;20037;-61
2023/10/19 09:30:18;;;;;;;17.10;12.35;;;10.10;99.90;;;;;;5044352;28;20037;-61
2023/10/19 09:32:47;;;;;;;11.73;9.15;;;10.10;99.90;;;;;;5039099;28;20037;-61
2023/10/19 09:35:15;;;;;;;10.80;9.02;;;10.10;99.90;;;;;;5038421;28;20060;-59
2023/10/19 09:37:42;;;;;;;12.48;9.85;;;10.10;99.90;;;;;;5025728;28;20408;-60
2023/10/19 09:40:12;;;;;;;14.55;10.90;;;10.10;99.90;;;;;;5042087;28;20055;-60
2023/10/19 09:42:46;;;;;;;15.05;11.38;;;10.20;99.90;;;;;;5038761;28;20045;-60
2023/10/19 09:45:12;;;;;;;15.40;11.35;;;10.20;99.90;;;;;;5030652;28;20037;-61
2023/10/19 09:47:41;;;;;;;18.83;12.73;;;10.20;99.90;;;;;;5024428;28;20044;-59
2023/10/19 09:50:07;;;;;;;16.40;12.65;;;10.20;99.90;;;;;;5028049;28;20529;-60
2023/10/19 09:52:33;;;;;;;15.43;11.38;;;10.20;99.90;;;;;;5042819;28;20044;-61
2023/10/19 09:55:08;;;;;;;15.45;11.80;;;10.30;99.90;;;;;;5042453;28;20037;-61
2023/10/19 09:57:47;;;;;;;16.15;11.40;;;10.20;99.90;;;;;;5043846;28;20083;-61
2023/10/19 10:00:13;;;;;;;14.35;11.65;;;10.30;99.90;;;;;;5041492;28;20041;-61
2023/10/19 10:02:42;;;;;;;13.50;11.25;;;10.30;99.90;;;;;;5026580;28;20037;-60
2023/10/19 10:05:42;;;;;;;17.92;13.77;;;10.30;99.90;;;;;;5036380;28;20049;-61
2023/10/19 10:08:17;;;;;;;16.17;12.20;;;10.30;99.90;;;;;;5043967;28;20045;-58
2023/10/19 10:10:43;;;;;;;19.23;13.45;;;10.40;99.90;;;;;;5038229;28;20457;-61
2023/10/19 10:13:30;;;;;;;18.90;13.02;;;10.40;99.90;;;;;;5023839;28;20049;-61
2023/10/19 10:15:59;;;;;;;17.88;12.25;;;10.40;99.90;;;;;;5041092;28;20052;-60
2023/10/19 10:18:27;;;;;;;16.50;11.93;;;10.40;99.90;;;;;;5043721;28;20059;-60
2023/10/19 10:21:12;;;;;;;17.33;12.48;;;10.50;99.90;;;;;;5028265;28;20044;-59
2023/10/19 10:23:47;;;;;;;22.88;16.30;;;10.50;99.90;;;;;;5041954;28;20059;-59
2023/10/19 10:26:18;;;;;;;26.05;17.48;;;10.50;99.90;;;;;;5045921;28;20651;-59
2023/10/19 10:28:49;;;;;;;18.05;14.50;;;10.60;99.90;;;;;;5043582;28;20029;-60
2023/10/19 10:31:22;;;;;;;24.00;15.95;;;10.60;99.90;;;;;;5059519;28;20044;-60
2023/10/19 10:33:54;;;;;;;22.25;16.25;;;10.60;99.90;;;;;;5043335;28;20044;-60
2023/10/19 10:36:20;;;;;;;25.27;18.13;;;10.70;99.90;;;;;;5041706;28;20056;-60
2023/10/19 10:38:48;;;;;;;25.27;17.38;;;10.70;99.90;;;;;;5024210;28;20056;-59
2023/10/19 10:41:27;;;;;;;19.33;14.82;;;10.70;99.90;;;;;;5039774;28;20534;-59
2023/10/19 10:43:55;;;;;;;21.08;16.20;;;10.70;99.90;;;;;;5039999;28;20041;-59
2023/10/19 10:46:22;;;;;;;23.88;16.17;;;10.80;99.90;;;;;;5040031;28;20051;-60
2023/10/19 10:48:48;;;;;;;18.50;13.98;;;10.80;99.90;;;;;;5027746;28;20041;-59
2023/10/19 10:51:30;;;;;;;21.70;14.98;;;10.90;99.90;;;;;;5042551;28;20037;-60
2023/10/19 10:53:58;;;;;;;23.40;17.38;;;11.00;99.90;;;;;;5054633;28;20531;-59
2023/10/19 10:56:24;;;;;;;27.50;18.77;;;11.00;99.90;;;;;;5038288;28;20049;-59
2023/10/19 10:58:50;;;;;;;18.50;13.77;;;11.00;99.90;;;;;;5041957;28;20493;-60
2023/10/19 11:01:32;;;;;;;19.33;14.98;;;10.90;99.90;;;;;;5040964;28;20199;-60
2023/10/19 11:04:10;;;;;;;21.77;15.20;;;10.90;99.90;;;;;;5040832;28;20516;-60
2023/10/19 11:06:55;;;;;;;18.13;13.95;;;10.90;99.90;;;;;;5023040;28;20056;-60
2023/10/19 11:09:24;;;;;;;20.90;14.73;;;10.90;99.90;;;;;;5036390;28;20109;-60
2023/10/19 11:11:52;;;;;;;21.77;15.63;;;10.90;99.90;;;;;;5039021;28;20044;-59
2023/10/19 11:14:17;;;;;;;21.40;15.68;;;11.00;99.90;;;;;;5037461;28;20045;-60
2023/10/19 11:16:43;;;;;;;23.38;16.10;;;11.00;99.90;;;;;;5025259;28;20040;-60
2023/10/19 11:19:09;;;;;;;20.77;15.55;;;11.00;99.90;;;;;;5037060;28;20043;-60
2023/10/19 11:21:35;;;;;;;23.85;16.00;;;11.00;99.90;;;;;;5042068;28;20040;-59
2023/10/19 11:24:01;;;;;;;22.10;16.40;;;11.00;99.90;;;;;;5028364;28;20041;-59
2023/10/19 11:26:29;;;;;;;19.50;15.20;;;11.00;99.90;;;;;;5047210;28;20037;-60
2023/10/19 11:29:04;;;;;;;21.08;16.27;;;11.00;99.90;;;;;;5043289;28;20052;-60
2023/10/19 11:31:37;;;;;;;25.90;17.38;;;11.00;99.90;;;;;;5036508;28;20061;-59
2023/10/19 11:34:03;;;;;;;23.00;15.65;;;11.00;99.90;;;;;;5037002;28;20045;-60
2023/10/19 11:36:29;;;;;;;20.80;15.95;;;10.90;99.90;;;;;;5038659;28;20036;-59
2023/10/19 11:38:55;;;;;;;24.08;17.58;;;11.00;99.90;;;;;;5044164;28;20381;-59
2023/10/19 11:41:23;;;;;;;18.25;15.35;;;11.00;99.90;;;;;;5048632;28;20060;-60
2023/10/19 11:43:49;;;;;;;26.83;18.95;;;11.00;99.90;;;;;;5047908;28;20048;-56
2023/10/19 11:46:17;;;;;;;22.33;16.63;;;11.10;99.90;;;;;;5047091;28;20034;-59
2023/10/19 11:48:44;;;;;;;22.30;16.88;;;11.10;99.90;;;;;;5027146;28;20403;-58
2023/10/19 11:51:14;;;;;;;22.17;17.45;;;11.20;99.90;;;;;;5046641;28;20041;-59
2023/10/19 11:53:42;;;;;;;20.48;15.77;;;11.20;99.90;;;;;;5041099;28;20047;-59
2023/10/19 11:56:09;;;;;;;27.38;17.92;;;11.20;99.90;;;;;;5042837;28;20045;-60
2023/10/19 11:58:37;;;;;;;22.52;16.58;;;11.20;99.90;;;;;;5045259;28;20048;-60
2023/10/19 12:01:08;;;;;;;21.13;15.90;;;11.20;99.90;;;;;;5027371;28;20049;-59
2023/10/19 12:03:41;;;;;;;23.23;17.35;;;11.20;99.90;;;;;;5045328;28;20401;-59
2023/10/19 12:06:07;;;;;;;21.67;15.25;;;11.20;99.90;;;;;;5045408;28;20053;-60
2023/10/19 12:08:38;;;;;;;18.48;13.95;;;11.20;99.90;;;;;;5043605;28;20090;-59
2023/10/19 12:11:14;;;;;;;21.30;14.93;;;11.20;99.90;;;;;;5044602;28;20056;-59
2023/10/19 12:13:43;;;;;;;19.13;12.55;;;11.20;99.90;;;;;;5051146;28;20428;-60
2023/10/19 12:16:12;;;;;;;13.95;11.95;;;11.10;99.90;;;;;;5044222;28;20052;-59
2023/10/19 12:18:44;;;;;;;18.73;13.88;;;11.10;99.90;;;;;;5048695;28;20076;-59
2023/10/19 12:21:14;;;;;;;16.95;13.20;;;11.20;99.90;;;;;;5029296;28;20029;-60
2023/10/19 12:23:41;;;;;;;16.88;12.88;;;11.20;99.90;;;;;;5048317;28;20064;-59
2023/10/19 12:26:13;;;;;;;14.85;12.60;;;11.20;99.90;;;;;;5025434;28;20063;-60
2023/10/19 12:28:40;;;;;;;14.60;10.57;;;11.20;99.90;;;;;;5042908;28;20526;-59
2023/10/19 12:31:08;;;;;;;12.15;10.07;;;11.20;99.90;;;;;;5043827;28;20096;-60
2023/10/19 12:33:35;;;;;;;12.98;9.75;;;11.20;99.90;;;;;;5043195;28;20052;-60
2023/10/19 12:36:07;;;;;;;12.15;9.88;;;11.20;99.90;;;;;;5028133;28;20040;-60
2023/10/19 12:38:33;;;;;;;10.57;8.80;;;11.20;99.90;;;;;;5049982;28;20458;-59
2023/10/19 12:40:59;;;;;;;12.35;9.45;;;11.10;99.90;;;;;;5044289;28;20049;-60
2023/10/19 12:43:25;;;;;;;11.95;8.73;;;11.10;99.90;;;;;;5037143;28;20086;-59
2023/10/19 12:45:53;;;;;;;12.15;9.35;;;11.10;99.90;;;;;;5034546;28;20851;-59
2023/10/19 12:48:20;;;;;;;12.60;9.93;;;11.10;99.90;;;;;;5037256;28;20136;-60
2023/10/19 12:50:47;;;;;;;14.40;10.10;;;11.10;99.90;;;;;;5041636;28;20041;-60
2023/10/19 12:53:13;;;;;;;14.05;11.02;;;11.10;99.90;;;;;;5043252;28;20172;-60
2023/10/19 12:55:40;;;;;;;13.32;10.32;;;11.10;99.90;;;;;;5027625;28;20144;-60
2023/10/19 12:58:14;;;;;;;15.10;10.57;;;11.10;99.90;;;;;;5041218;28;20041;-60
2023/10/19 13:00:49;;;;;;;13.63;10.02;;;11.10;99.90;;;;;;5024295;28;20060;-60
2023/10/19 13:03:16;;;;;;;15.63;12.18;;;11.10;99.90;;;;;;5029578;28;20242;-60